createdAt,value
2018-11-29T00:02:44.937Z,36.60
2018-11-29T00:05:50.420Z,31.83
2018-11-29T00:08:54.850Z,31.87
2018-11-29T00:12:01.767Z,32.07
2018-11-29T00:15:09.509Z,37.37
2018-11-29T00:18:15.279Z,35.30
2018-11-29T00:21:19.591Z,31.90
2018-11-29T00:24:25.494Z,35.57
2018-11-29T00:27:31.610Z,35.57
2018-11-29T00:30:35.945Z,36.10
2018-11-29T00:33:40.358Z,39.20
2018-11-29T00:36:44.751Z,37.43
2018-11-29T00:39:49.083Z,40.17
2018-11-29T00:43:00.461Z,41.70
2018-11-29T00:46:04.750Z,40.80
2018-11-29T00:49:10.415Z,42.27
2018-11-29T00:52:15.549Z,39.77
2018-11-29T00:55:23.019Z,43.70
2018-11-29T00:58:27.719Z,41.13
2018-11-29T01:01:32.616Z,43.97
2018-11-29T01:04:37.021Z,39.53
2018-11-29T01:07:41.425Z,40.20
2018-11-29T01:10:46.872Z,40.63
2018-11-29T01:13:51.220Z,42.33
2018-11-29T01:16:55.614Z,42.60
2018-11-29T01:23:12.697Z,44.47
2018-11-29T01:26:17.141Z,40.10
2018-11-29T01:29:21.594Z,42.63
2018-11-29T01:32:25.865Z,42.87
2018-11-29T01:35:30.600Z,44.77
2018-11-29T01:38:35.276Z,45.93
2018-11-29T01:41:50.662Z,36.93
2018-11-29T01:44:55.950Z,44.20
2018-11-29T01:48:00.308Z,43.20
2018-11-29T01:51:04.802Z,42.17
2018-11-29T01:54:09.553Z,44.40
2018-11-29T01:57:15.912Z,47.43
2018-11-29T02:00:20.444Z,46.40
2018-11-29T02:03:25.257Z,44.00
2018-11-29T02:06:29.852Z,47.00
2018-11-29T02:24:48.499Z,50.10
2018-11-29T02:27:58.764Z,48.57
2018-11-29T02:38:14.760Z,44.93
2018-11-29T02:44:55.832Z,52.57
2018-11-29T02:48:09.411Z,52.80
2018-11-29T02:51:13.974Z,48.07
2018-11-29T02:54:26.033Z,53.67
2018-11-29T02:58:36.412Z,53.93
2018-11-29T03:05:21.447Z,49.30
2018-11-29T03:17:11.461Z,54.73
2018-11-29T03:20:29.810Z,47.87
2018-11-29T03:23:35.644Z,59.20
2018-11-29T03:26:56.353Z,47.77
2018-11-29T03:30:01.866Z,50.90
2018-11-29T03:33:07.625Z,52.80
2018-11-29T03:36:46.144Z,51.13
2018-11-29T03:43:24.098Z,49.03
2018-11-29T03:46:29.021Z,54.10
2018-11-29T04:11:20.391Z,50.77
2018-11-29T04:14:55.841Z,54.70
2018-11-29T04:23:55.972Z,51.97
2018-11-29T04:27:10.549Z,55.27
2018-11-29T04:30:50.523Z,54.40
2018-11-29T04:37:38.065Z,56.30
2018-11-29T04:40:43.990Z,53.77
2018-11-29T04:44:02.847Z,49.93
2018-11-29T04:57:59.522Z,55.73
2018-11-29T05:01:19.954Z,55.87
2018-11-29T05:04:25.859Z,57.13
2018-11-29T05:07:33.143Z,53.70
2018-11-29T05:10:40.330Z,53.03
2018-11-29T05:13:46.380Z,55.87
2018-11-29T05:31:28.898Z,47.87
2018-11-29T06:00:03.979Z,59.13
2018-11-29T06:03:19.003Z,61.40
2018-11-29T06:19:43.776Z,56.27
2018-11-29T06:37:41.171Z,46.70
2018-11-29T06:41:15.303Z,58.47
2018-11-29T06:44:25.085Z,47.40
2018-11-29T06:51:34.756Z,55.37
2018-11-29T06:54:44.338Z,55.30
2018-11-29T07:09:56.829Z,59.27
2018-11-29T07:13:02.604Z,50.90
2018-11-29T07:16:14.698Z,55.87
2018-11-29T07:19:19.378Z,53.50
2018-11-29T07:22:31.079Z,46.23
2018-11-29T07:25:35.422Z,52.53
2018-11-29T07:29:17.226Z,51.00
2018-11-29T07:41:15.418Z,46.23
2018-11-29T07:44:22.019Z,43.57
2018-11-29T07:47:35.006Z,49.07
2018-11-29T07:50:40.479Z,47.73
2018-11-29T07:53:45.107Z,52.70
2018-11-29T07:57:00.666Z,49.23
2018-11-29T08:00:21.886Z,54.53
2018-11-29T08:03:26.952Z,54.20
2018-11-29T08:06:52.122Z,53.90
2018-11-29T08:10:23.523Z,54.57
2018-11-29T08:13:30.763Z,48.97
2018-11-29T08:19:54.726Z,51.37
2018-11-29T08:22:59.571Z,52.60
2018-11-29T08:26:09.912Z,51.40
2018-11-29T08:29:14.384Z,54.27
2018-11-29T08:32:19.556Z,46.40
2018-11-29T08:35:28.384Z,53.97
2018-11-29T08:38:40.318Z,54.83
2018-11-29T08:42:07.654Z,54.23
2018-11-29T08:45:19.606Z,49.57
2018-11-29T08:48:26.534Z,52.43
2018-11-29T08:51:36.996Z,56.17
2018-11-29T08:54:41.470Z,58.03
2018-11-29T08:57:58.243Z,58.67
2018-11-29T09:01:03.985Z,58.73
2018-11-29T09:04:08.436Z,56.67
2018-11-29T09:07:17.791Z,53.37
2018-11-29T09:10:31.705Z,56.50
2018-11-29T09:13:34.797Z,47.37
2018-11-29T09:19:58.755Z,57.70
2018-11-29T09:23:04.554Z,53.63
2018-11-29T09:26:10.336Z,51.20
2018-11-29T09:29:19.045Z,52.50
2018-11-29T09:32:23.859Z,54.83
2018-11-29T09:35:29.371Z,57.87
2018-11-29T09:38:39.843Z,54.67
2018-11-29T09:45:09.439Z,55.73
2018-11-29T09:48:13.973Z,61.73
2018-11-29T09:51:18.333Z,55.23
2018-11-29T09:54:22.724Z,61.83
2018-11-29T09:57:27.294Z,53.23
2018-11-29T10:03:49.958Z,69.80
2018-11-29T10:06:54.900Z,63.30
2018-11-29T10:10:12.150Z,60.47
2018-11-29T10:13:16.793Z,67.77
2018-11-29T10:16:21.205Z,55.70
2018-11-29T10:19:26.554Z,55.70
2018-11-29T10:22:35.679Z,58.67
2018-11-29T10:25:51.275Z,57.03
2018-11-29T10:37:01.901Z,58.70
2018-11-29T10:40:10.024Z,63.27
2018-11-29T10:43:22.723Z,59.97
2018-11-29T10:46:28.343Z,61.80
2018-11-29T10:49:34.263Z,68.23
2018-11-29T10:52:38.881Z,59.97
2018-11-29T10:55:44.032Z,56.67
2018-11-29T10:58:48.317Z,57.17
2018-11-29T11:02:04.668Z,60.27
2018-11-29T11:05:11.593Z,54.73
2018-11-29T11:08:19.962Z,59.30
2018-11-29T11:11:29.287Z,57.17
2018-11-29T11:14:41.954Z,57.10
2018-11-29T11:17:46.624Z,57.87
2018-11-29T11:20:52.637Z,53.67
2018-11-29T11:24:01.202Z,59.23
2018-11-29T11:27:08.003Z,53.27
2018-11-29T11:30:18.905Z,59.03
2018-11-29T11:33:25.700Z,47.47
2018-11-29T11:36:37.004Z,53.30
2018-11-29T11:39:41.598Z,57.50
2018-11-29T11:42:47.026Z,52.47
2018-11-29T11:46:00.256Z,43.23
2018-11-29T11:52:29.099Z,51.23
2018-11-29T11:55:33.621Z,51.13
2018-11-29T12:02:11.852Z,46.93
2018-11-29T12:05:17.784Z,44.10
2018-11-29T12:08:22.418Z,44.23
2018-11-29T12:11:54.314Z,41.60
2018-11-29T12:19:20.117Z,40.57
2018-11-29T12:26:05.381Z,40.60
2018-11-29T12:35:00.678Z,43.80
2018-11-29T12:38:05.020Z,37.87
2018-11-29T12:47:47.471Z,39.07
2018-11-29T12:50:57.842Z,38.27
2018-11-29T12:54:06.449Z,40.73
2018-11-29T12:57:11.406Z,41.83
2018-11-29T13:00:27.867Z,40.57
2018-11-29T13:03:39.118Z,38.67
2018-11-29T13:06:47.380Z,39.07
2018-11-29T13:10:02.615Z,40.10
2018-11-29T13:13:08.046Z,41.17
2018-11-29T13:16:13.138Z,34.67
2018-11-29T13:19:18.953Z,38.90
2018-11-29T13:38:55.430Z,36.47
2018-11-29T13:42:09.102Z,34.63
2018-11-29T13:45:13.734Z,39.07
2018-11-29T13:54:03.122Z,37.77
2018-11-29T13:57:11.719Z,31.10
2018-11-29T14:02:30.507Z,39.10
2018-11-29T14:09:15.988Z,34.97
2018-11-29T14:15:43.776Z,34.10
2018-11-29T14:18:51.699Z,34.90
2018-11-29T14:21:56.254Z,35.17
2018-11-29T14:25:01.423Z,33.07
2018-11-29T14:28:10.701Z,34.73
2018-11-29T14:31:15.301Z,37.40
2018-11-29T14:34:31.062Z,38.93
2018-11-29T14:37:38.082Z,36.27
2018-11-29T14:41:18.770Z,35.90
2018-11-29T14:44:46.756Z,36.73
2018-11-29T14:47:54.781Z,32.83
2018-11-29T14:51:02.864Z,35.87
2018-11-29T14:54:09.574Z,34.70
2018-11-29T14:57:16.545Z,36.20
2018-11-29T15:00:38.160Z,32.83
2018-11-29T15:03:56.662Z,39.23
2018-11-29T15:08:02.097Z,36.37
2018-11-29T15:11:59.412Z,31.43
2018-11-29T15:15:12.481Z,36.97
2018-11-29T15:18:18.804Z,40.20
2018-11-29T15:21:27.988Z,37.87
2018-11-29T15:24:32.763Z,35.17
2018-11-29T15:30:52.174Z,38.40
2018-11-29T15:33:56.889Z,33.83
2018-11-29T15:37:02.691Z,33.03
2018-11-29T15:40:26.868Z,30.97
2018-11-29T15:43:34.468Z,33.60
2018-11-29T15:46:47.787Z,32.60
2018-11-29T15:49:56.131Z,32.37
2018-11-29T15:53:07.934Z,31.90
2018-11-29T15:56:12.820Z,33.03
2018-11-29T15:59:17.237Z,33.83
2018-11-29T16:02:21.876Z,34.33
2018-11-29T16:05:26.438Z,31.60
2018-11-29T16:08:31.129Z,30.77
2018-11-29T16:11:37.616Z,29.77
2018-11-29T16:14:43.572Z,33.00
2018-11-29T16:17:48.234Z,33.67
2018-11-29T16:20:53.350Z,35.20
2018-11-29T16:23:58.157Z,33.03
2018-11-29T16:27:04.348Z,33.17
2018-11-29T16:30:20.035Z,32.90
2018-11-29T16:33:30.772Z,30.77
2018-11-29T16:36:36.456Z,33.13
2018-11-29T16:39:40.859Z,32.47
2018-11-29T16:42:46.865Z,32.33
2018-11-29T16:45:55.817Z,36.47
2018-11-29T16:49:02.926Z,29.97
2018-11-29T16:52:04.946Z,30.80
2018-11-29T17:08:13.068Z,36.77
2018-11-29T17:11:36.849Z,30.77
2018-11-29T17:14:41.397Z,28.30
2018-11-29T17:17:46.510Z,32.10
2018-11-29T17:20:50.890Z,33.40
2018-11-29T17:23:55.538Z,32.27
2018-11-29T17:27:06.201Z,32.87
2018-11-29T17:30:22.735Z,30.47
2018-11-29T17:33:27.901Z,30.23
2018-11-29T17:36:32.679Z,31.07
2018-11-29T17:39:37.648Z,29.90
2018-11-29T17:42:42.259Z,29.00
2018-11-29T17:45:48.343Z,33.47
2018-11-29T17:48:53.811Z,33.10
2018-11-29T17:52:02.126Z,32.87
2018-11-29T17:55:07.377Z,29.50
2018-11-29T17:58:14.944Z,30.17
2018-11-29T18:01:19.840Z,30.80
2018-11-29T18:04:24.629Z,33.37
2018-11-29T18:07:29.298Z,31.60
2018-11-29T18:10:38.746Z,31.37
2018-11-29T18:14:02.879Z,30.57
2018-11-29T18:17:08.237Z,28.43
2018-11-29T18:23:27.011Z,36.43
2018-11-29T18:26:32.005Z,30.20
2018-11-29T18:29:37.515Z,30.23
2018-11-29T18:32:46.833Z,30.10
2018-11-29T18:35:58.751Z,31.27
2018-11-29T18:39:29.706Z,31.03
2018-11-29T18:42:46.800Z,30.53
2018-11-29T18:45:59.579Z,27.80
2018-11-29T18:49:04.937Z,29.77
2018-11-29T18:52:09.679Z,29.40
2018-11-29T18:55:15.702Z,30.13
2018-11-29T18:58:22.457Z,28.47
2018-11-29T19:01:27.802Z,27.53
2018-11-29T19:04:32.430Z,28.97
2018-11-29T19:07:39.029Z,27.47
2018-11-29T19:11:08.255Z,27.53
2018-11-29T19:14:13.180Z,29.40
2018-11-29T19:17:19.145Z,33.47
2018-11-29T19:20:52.467Z,26.13
2018-11-29T19:23:57.558Z,27.23
2018-11-29T19:30:42.765Z,28.40
2018-11-29T19:33:50.469Z,29.60
2018-11-29T19:36:55.436Z,27.60
2018-11-29T19:40:01.404Z,28.33
2018-11-29T19:43:36.581Z,30.60
2018-11-29T19:50:02.845Z,29.30
2018-11-29T19:53:13.963Z,27.50
2018-11-29T19:56:21.074Z,30.23
2018-11-29T20:06:43.375Z,29.37
2018-11-29T20:09:52.457Z,26.47
2018-11-29T20:16:30.030Z,29.13
2018-11-29T20:22:48.368Z,25.97
2018-11-29T20:29:31.090Z,27.10
2018-11-29T20:32:36.273Z,27.93
2018-11-29T20:35:47.074Z,28.73
2018-11-29T20:39:03.587Z,26.57
2018-11-29T20:42:08.224Z,29.40
2018-11-29T20:45:29.499Z,26.80
2018-11-29T20:48:47.382Z,23.23
2018-11-29T20:56:26.904Z,24.40
2018-11-29T20:59:35.222Z,24.33
2018-11-29T21:02:40.882Z,25.23
2018-11-29T21:09:00.277Z,23.80
2018-11-29T21:12:07.705Z,22.80
2018-11-29T21:15:12.654Z,20.53
2018-11-29T21:21:33.267Z,21.33
2018-11-29T21:24:39.563Z,20.67
2018-11-29T21:27:45.382Z,18.80
2018-11-29T21:34:13.931Z,22.20
2018-11-29T21:37:19.563Z,23.30
2018-11-29T21:44:38.375Z,22.60
2018-11-29T21:47:44.272Z,23.63
2018-11-29T21:50:49.805Z,23.43
2018-11-29T21:53:54.834Z,22.30
2018-11-29T21:57:17.297Z,21.33
2018-11-29T22:00:30.418Z,20.27
2018-11-29T22:03:42.029Z,21.43
2018-11-29T22:06:46.663Z,23.00
2018-11-29T22:09:53.106Z,22.57
2018-11-29T22:12:59.047Z,16.60
2018-11-29T22:16:04.515Z,27.20
2018-11-29T22:19:09.281Z,20.30
2018-11-29T22:22:20.734Z,21.67
2018-11-29T22:28:39.435Z,23.73
2018-11-29T22:31:44.413Z,20.70
2018-11-29T22:38:28.062Z,26.03
2018-11-29T22:41:32.878Z,21.60
2018-11-29T22:44:41.153Z,18.40
2018-11-29T22:51:15.512Z,18.83
2018-11-29T22:54:20.112Z,21.13
2018-11-29T22:57:25.475Z,19.40
2018-11-29T23:00:35.532Z,20.83
2018-11-29T23:03:45.309Z,18.80
2018-11-29T23:06:49.846Z,17.40
2018-11-29T23:09:54.497Z,20.07
2018-11-29T23:13:01.686Z,19.70
2018-11-29T23:16:07.048Z,20.73
2018-11-29T23:19:12.491Z,19.80
2018-11-29T23:22:23.325Z,18.70
2018-11-29T23:28:45.177Z,20.07
2018-11-29T23:31:50.854Z,19.73
2018-11-29T23:34:55.572Z,20.90
2018-11-29T23:38:00.478Z,20.17
2018-11-29T23:41:16.096Z,23.57
2018-11-29T23:44:20.654Z,21.97
2018-11-29T23:47:25.559Z,20.73
2018-11-29T23:50:30.194Z,20.60
2018-11-29T23:53:34.842Z,18.50
2018-11-29T23:56:40.850Z,21.87
2018-11-29T23:59:46.588Z,20.80
